Terminal Aerodrome Forecast
Issued by NWS Chicago, IL

Home | Current Version | Previous Version | Graphics & Text | Print | Product List | Glossary On
Versions: 1 2 3 4 5 6 7 8 9 10 11 12 13 14 15 16 17 18 19 20 21 22 23 24 25 26 27 28 29 30 31 32 33
000
FTUS43 KLOT 202208 AAB
TAFRFD
TAF AMD
KRFD 202208Z 2022/2118 28015G25KT P6SM VCSH BKN035
     FM210130 24010KT P6SM BKN060
     FM211400 27015G25KT P6SM BKN060
     FM211600 27025G35KT P6SM BKN060=

USA.gov is the U.S. government's official web portal to all federal, state and local government web resources and services.